sensor_id;sensor_type;location;lat;lon;timestamp;temperature;humidity
76787;DHT22;65739;51.482;5.702;2023-03-01T00:00:53;-2.30;99.90
76787;DHT22;65739;51.482;5.702;2023-03-01T00:03:19;-2.20;99.90
76787;DHT22;65739;51.482;5.702;2023-03-01T00:05:45;-2.20;99.90
76787;DHT22;65739;51.482;5.702;2023-03-01T00:08:11;-2.20;99.90
76787;DHT22;65739;51.482;5.702;2023-03-01T00:10:37;-2.30;99.90
76787;DHT22;65739;51.482;5.702;2023-03-01T00:13:02;-2.30;99.90
76787;DHT22;65739;51.482;5.702;2023-03-01T00:15:33;-2.30;99.90
76787;DHT22;65739;51.482;5.702;2023-03-01T00:18:00;-2.30;99.90
76787;DHT22;65739;51.482;5.702;2023-03-01T00:20:25;-2.40;99.90
76787;DHT22;65739;51.482;5.702;2023-03-01T00:22:51;-2.30;99.90
76787;DHT22;65739;51.482;5.702;2023-03-01T00:25:17;-2.40;99.90
76787;DHT22;65739;51.482;5.702;2023-03-01T00:27:42;-2.40;99.90
76787;DHT22;65739;51.482;5.702;2023-03-01T00:30:08;-2.50;99.90
76787;DHT22;65739;51.482;5.702;2023-03-01T00:32:33;-2.50;99.90
76787;DHT22;65739;51.482;5.702;2023-03-01T00:34:59;-2.60;99.90
76787;DHT22;65739;51.482;5.702;2023-03-01T00:37:25;-2.50;99.90
76787;DHT22;65739;51.482;5.702;2023-03-01T00:39:50;-2.60;99.90
76787;DHT22;65739;51.482;5.702;2023-03-01T00:42:16;-2.60;99.90
76787;DHT22;65739;51.482;5.702;2023-03-01T00:44:41;-2.60;99.90
76787;DHT22;65739;51.482;5.702;2023-03-01T00:47:07;-2.70;99.90
76787;DHT22;65739;51.482;5.702;2023-03-01T00:49:33;-2.70;99.90
76787;DHT22;65739;51.482;5.702;2023-03-01T00:51:58;-2.70;99.90
76787;DHT22;65739;51.482;5.702;2023-03-01T00:54:24;-2.90;99.90
76787;DHT22;65739;51.482;5.702;2023-03-01T00:56:49;-2.80;99.90
76787;DHT22;65739;51.482;5.702;2023-03-01T00:59:15;-2.80;99.90
76787;DHT22;65739;51.482;5.702;2023-03-01T01:01:40;-2.90;99.90
76787;DHT22;65739;51.482;5.702;2023-03-01T01:04:10;-2.80;99.90
76787;DHT22;65739;51.482;5.702;2023-03-01T01:06:38;-2.90;99.90
76787;DHT22;65739;51.482;5.702;2023-03-01T01:09:05;-2.90;99.90
76787;DHT22;65739;51.482;5.702;2023-03-01T01:11:32;-2.90;99.90
76787;DHT22;65739;51.482;5.702;2023-03-01T01:13:58;-3.00;99.90
76787;DHT22;65739;51.482;5.702;2023-03-01T01:16:24;-3.00;99.90
76787;DHT22;65739;51.482;5.702;2023-03-01T01:18:50;-3.00;99.90
76787;DHT22;65739;51.482;5.702;2023-03-01T01:21:17;-3.10;99.90
76787;DHT22;65739;51.482;5.702;2023-03-01T01:23:43;-3.00;99.90
76787;DHT22;65739;51.482;5.702;2023-03-01T01:26:10;-3.10;99.90
76787;DHT22;65739;51.482;5.702;2023-03-01T01:28:36;-3.10;99.90
76787;DHT22;65739;51.482;5.702;2023-03-01T01:31:02;-3.20;99.90
76787;DHT22;65739;51.482;5.702;2023-03-01T01:33:27;-3.20;99.90
76787;DHT22;65739;51.482;5.702;2023-03-01T01:35:53;-3.20;99.90
76787;DHT22;65739;51.482;5.702;2023-03-01T01:38:19;-3.20;99.90
76787;DHT22;65739;51.482;5.702;2023-03-01T01:40:45;-3.20;99.90
76787;DHT22;65739;51.482;5.702;2023-03-01T01:43:33;-3.30;99.90
76787;DHT22;65739;51.482;5.702;2023-03-01T01:46:01;-3.30;99.90
76787;DHT22;65739;51.482;5.702;2023-03-01T01:48:49;-3.20;99.90
76787;DHT22;65739;51.482;5.702;2023-03-01T01:51:14;-3.10;99.90
76787;DHT22;65739;51.482;5.702;2023-03-01T01:53:41;-3.10;99.90
76787;DHT22;65739;51.482;5.702;2023-03-01T01:56:11;-3.10;99.90
76787;DHT22;65739;51.482;5.702;2023-03-01T01:58:38;-3.10;99.90
76787;DHT22;65739;51.482;5.702;2023-03-01T02:01:04;-3.10;99.90
76787;DHT22;65739;51.482;5.702;2023-03-01T02:03:30;-3.20;99.90
76787;DHT22;65739;51.482;5.702;2023-03-01T02:06:00;-3.20;99.90
76787;DHT22;65739;51.482;5.702;2023-03-01T02:08:29;-3.10;99.90
76787;DHT22;65739;51.482;5.702;2023-03-01T02:10:55;-3.10;99.90
76787;DHT22;65739;51.482;5.702;2023-03-01T02:13:21;-3.10;99.90
76787;DHT22;65739;51.482;5.702;2023-03-01T02:15:47;-3.20;99.90
76787;DHT22;65739;51.482;5.702;2023-03-01T02:18:13;-3.20;99.90
76787;DHT22;65739;51.482;5.702;2023-03-01T02:20:51;-3.20;99.90
76787;DHT22;65739;51.482;5.702;2023-03-01T02:23:20;-3.30;99.90
76787;DHT22;65739;51.482;5.702;2023-03-01T02:30:43;-3.40;99.90
76787;DHT22;65739;51.482;5.702;2023-03-01T02:33:28;-3.40;99.90
76787;DHT22;65739;51.482;5.702;2023-03-01T02:35:54;-3.30;99.90
76787;DHT22;65739;51.482;5.702;2023-03-01T02:38:20;-3.20;99.90
76787;DHT22;65739;51.482;5.702;2023-03-01T02:40:46;-3.20;99.90
76787;DHT22;65739;51.482;5.702;2023-03-01T02:43:12;-3.30;99.90
76787;DHT22;65739;51.482;5.702;2023-03-01T02:45:42;-3.30;99.90
76787;DHT22;65739;51.482;5.702;2023-03-01T02:48:08;-3.40;99.90
76787;DHT22;65739;51.482;5.702;2023-03-01T02:50:40;-3.40;99.90
76787;DHT22;65739;51.482;5.702;2023-03-01T02:53:29;-3.40;99.90
76787;DHT22;65739;51.482;5.702;2023-03-01T02:55:59;-3.40;99.90
76787;DHT22;65739;51.482;5.702;2023-03-01T02:58:24;-3.20;99.90
76787;DHT22;65739;51.482;5.702;2023-03-01T03:00:50;-3.20;99.90
76787;DHT22;65739;51.482;5.702;2023-03-01T03:03:16;-3.20;99.90
76787;DHT22;65739;51.482;5.702;2023-03-01T03:05:42;-3.20;99.90
76787;DHT22;65739;51.482;5.702;2023-03-01T03:08:08;-3.20;99.90
76787;DHT22;65739;51.482;5.702;2023-03-01T03:10:37;-3.20;99.90
76787;DHT22;65739;51.482;5.702;2023-03-01T03:13:03;-3.30;99.90
76787;DHT22;65739;51.482;5.702;2023-03-01T03:15:29;-3.20;99.90
76787;DHT22;65739;51.482;5.702;2023-03-01T03:17:55;-3.00;99.90
76787;DHT22;65739;51.482;5.702;2023-03-01T03:20:22;-2.90;99.90
76787;DHT22;65739;51.482;5.702;2023-03-01T03:22:49;-2.90;99.90
76787;DHT22;65739;51.482;5.702;2023-03-01T03:25:15;-2.90;99.90
76787;DHT22;65739;51.482;5.702;2023-03-01T03:27:41;-2.80;99.90
76787;DHT22;65739;51.482;5.702;2023-03-01T03:30:08;-2.80;99.90
76787;DHT22;65739;51.482;5.702;2023-03-01T03:32:41;-2.90;99.90
76787;DHT22;65739;51.482;5.702;2023-03-01T03:35:07;-2.90;99.90
76787;DHT22;65739;51.482;5.702;2023-03-01T03:37:38;-3.00;99.90
76787;DHT22;65739;51.482;5.702;2023-03-01T03:40:22;-3.00;99.90
76787;DHT22;65739;51.482;5.702;2023-03-01T03:42:47;-2.90;99.90
76787;DHT22;65739;51.482;5.702;2023-03-01T03:45:13;-3.00;99.90
76787;DHT22;65739;51.482;5.702;2023-03-01T03:47:39;-3.00;99.90
76787;DHT22;65739;51.482;5.702;2023-03-01T03:50:04;-3.00;99.90
76787;DHT22;65739;51.482;5.702;2023-03-01T03:52:30;-2.90;99.90
76787;DHT22;65739;51.482;5.702;2023-03-01T03:54:55;-2.90;99.90
76787;DHT22;65739;51.482;5.702;2023-03-01T03:57:21;-2.90;99.90
76787;DHT22;65739;51.482;5.702;2023-03-01T03:59:46;-2.90;99.90
76787;DHT22;65739;51.482;5.702;2023-03-01T04:02:12;-2.90;99.90
76787;DHT22;65739;51.482;5.702;2023-03-01T04:04:37;-2.90;99.90
76787;DHT22;65739;51.482;5.702;2023-03-01T04:07:03;-2.90;99.90
76787;DHT22;65739;51.482;5.702;2023-03-01T04:09:28;-2.90;99.90
76787;DHT22;65739;51.482;5.702;2023-03-01T04:11:55;-2.80;99.90
76787;DHT22;65739;51.482;5.702;2023-03-01T04:14:20;-2.90;99.90
76787;DHT22;65739;51.482;5.702;2023-03-01T04:16:46;-2.90;99.90
76787;DHT22;65739;51.482;5.702;2023-03-01T04:19:12;-2.90;99.90
76787;DHT22;65739;51.482;5.702;2023-03-01T04:21:37;-3.00;99.90
76787;DHT22;65739;51.482;5.702;2023-03-01T04:24:03;-2.90;99.90
76787;DHT22;65739;51.482;5.702;2023-03-01T04:26:29;-2.80;99.90
76787;DHT22;65739;51.482;5.702;2023-03-01T04:28:54;-2.90;99.90
76787;DHT22;65739;51.482;5.702;2023-03-01T04:31:20;-2.90;99.90
76787;DHT22;65739;51.482;5.702;2023-03-01T04:33:50;-2.90;99.90
76787;DHT22;65739;51.482;5.702;2023-03-01T04:36:19;-2.90;99.90
76787;DHT22;65739;51.482;5.702;2023-03-01T04:38:45;-3.00;99.90
76787;DHT22;65739;51.482;5.702;2023-03-01T04:41:14;-3.00;99.90
76787;DHT22;65739;51.482;5.702;2023-03-01T04:43:40;-3.00;99.90
76787;DHT22;65739;51.482;5.702;2023-03-01T04:46:07;-3.00;99.90
76787;DHT22;65739;51.482;5.702;2023-03-01T04:48:37;-3.00;99.90
76787;DHT22;65739;51.482;5.702;2023-03-01T04:51:02;-3.00;99.90
76787;DHT22;65739;51.482;5.702;2023-03-01T04:53:28;-3.10;99.90
76787;DHT22;65739;51.482;5.702;2023-03-01T04:55:54;-3.10;99.90
76787;DHT22;65739;51.482;5.702;2023-03-01T04:58:23;-3.10;99.90
76787;DHT22;65739;51.482;5.702;2023-03-01T05:00:49;-3.10;99.90
76787;DHT22;65739;51.482;5.702;2023-03-01T05:03:14;-3.10;99.90
76787;DHT22;65739;51.482;5.702;2023-03-01T05:05:44;-3.10;99.90
76787;DHT22;65739;51.482;5.702;2023-03-01T05:08:09;-3.10;99.90
76787;DHT22;65739;51.482;5.702;2023-03-01T05:10:43;-3.10;99.90
76787;DHT22;65739;51.482;5.702;2023-03-01T05:13:09;-3.10;99.90
76787;DHT22;65739;51.482;5.702;2023-03-01T05:15:34;-3.20;99.90
76787;DHT22;65739;51.482;5.702;2023-03-01T05:18:01;-3.10;99.90
76787;DHT22;65739;51.482;5.702;2023-03-01T05:20:27;-3.10;99.90
76787;DHT22;65739;51.482;5.702;2023-03-01T05:22:55;-3.10;99.90
76787;DHT22;65739;51.482;5.702;2023-03-01T05:25:21;-3.00;99.90
76787;DHT22;65739;51.482;5.702;2023-03-01T05:27:46;-3.10;99.90
76787;DHT22;65739;51.482;5.702;2023-03-01T05:30:12;-3.10;99.90
76787;DHT22;65739;51.482;5.702;2023-03-01T05:32:48;-3.20;99.90
76787;DHT22;65739;51.482;5.702;2023-03-01T05:35:14;-3.20;99.90
76787;DHT22;65739;51.482;5.702;2023-03-01T05:37:41;-3.30;99.90
76787;DHT22;65739;51.482;5.702;2023-03-01T05:40:07;-3.20;99.90
76787;DHT22;65739;51.482;5.702;2023-03-01T05:42:41;-3.30;99.90
76787;DHT22;65739;51.482;5.702;2023-03-01T05:45:07;-3.30;99.90
76787;DHT22;65739;51.482;5.702;2023-03-01T05:47:34;-3.40;99.90
76787;DHT22;65739;51.482;5.702;2023-03-01T05:50:00;-3.40;99.90
76787;DHT22;65739;51.482;5.702;2023-03-01T05:52:26;-3.50;99.90
76787;DHT22;65739;51.482;5.702;2023-03-01T05:54:51;-3.50;99.90
76787;DHT22;65739;51.482;5.702;2023-03-01T05:57:17;-3.60;99.90
76787;DHT22;65739;51.482;5.702;2023-03-01T05:59:42;-3.60;99.90
76787;DHT22;65739;51.482;5.702;2023-03-01T06:02:08;-3.60;99.90
76787;DHT22;65739;51.482;5.702;2023-03-01T06:04:34;-3.70;99.90
76787;DHT22;65739;51.482;5.702;2023-03-01T06:06:59;-3.80;99.90
76787;DHT22;65739;51.482;5.702;2023-03-01T06:09:24;-3.80;99.90
76787;DHT22;65739;51.482;5.702;2023-03-01T06:11:51;-3.80;99.90
76787;DHT22;65739;51.482;5.702;2023-03-01T06:14:16;-3.90;99.90
76787;DHT22;65739;51.482;5.702;2023-03-01T06:16:42;-3.90;99.90
76787;DHT22;65739;51.482;5.702;2023-03-01T06:19:07;-3.80;99.90
76787;DHT22;65739;51.482;5.702;2023-03-01T06:21:33;-3.70;99.90
76787;DHT22;65739;51.482;5.702;2023-03-01T06:23:58;-3.70;99.90
76787;DHT22;65739;51.482;5.702;2023-03-01T06:26:24;-3.60;99.90
76787;DHT22;65739;51.482;5.702;2023-03-01T06:28:49;-3.60;99.90
76787;DHT22;65739;51.482;5.702;2023-03-01T06:31:15;-3.60;99.90
76787;DHT22;65739;51.482;5.702;2023-03-01T06:33:40;-3.50;99.90
76787;DHT22;65739;51.482;5.702;2023-03-01T06:36:06;-3.50;99.90
76787;DHT22;65739;51.482;5.702;2023-03-01T06:38:32;-3.50;99.90
76787;DHT22;65739;51.482;5.702;2023-03-01T06:40:57;-3.60;99.90
76787;DHT22;65739;51.482;5.702;2023-03-01T06:43:23;-3.60;99.90
76787;DHT22;65739;51.482;5.702;2023-03-01T06:45:49;-3.60;99.90
76787;DHT22;65739;51.482;5.702;2023-03-01T06:48:14;-3.60;99.90
76787;DHT22;65739;51.482;5.702;2023-03-01T06:50:40;-3.50;99.90
76787;DHT22;65739;51.482;5.702;2023-03-01T06:53:06;-3.60;99.90
76787;DHT22;65739;51.482;5.702;2023-03-01T06:55:31;-3.60;99.90
76787;DHT22;65739;51.482;5.702;2023-03-01T06:57:57;-3.60;99.90
76787;DHT22;65739;51.482;5.702;2023-03-01T07:00:24;-3.50;99.90
76787;DHT22;65739;51.482;5.702;2023-03-01T07:02:49;-3.50;99.90
76787;DHT22;65739;51.482;5.702;2023-03-01T07:05:15;-3.40;99.90
76787;DHT22;65739;51.482;5.702;2023-03-01T07:07:41;-3.30;99.90
76787;DHT22;65739;51.482;5.702;2023-03-01T07:10:06;-3.20;99.90
76787;DHT22;65739;51.482;5.702;2023-03-01T07:12:32;-3.10;99.90
76787;DHT22;65739;51.482;5.702;2023-03-01T07:14:58;-3.00;99.90
76787;DHT22;65739;51.482;5.702;2023-03-01T07:17:24;-2.80;99.90
76787;DHT22;65739;51.482;5.702;2023-03-01T07:19:56;-2.80;99.90
76787;DHT22;65739;51.482;5.702;2023-03-01T07:22:35;-2.70;99.90
76787;DHT22;65739;51.482;5.702;2023-03-01T07:25:00;-2.60;99.90
76787;DHT22;65739;51.482;5.702;2023-03-01T07:27:26;-2.50;99.90
76787;DHT22;65739;51.482;5.702;2023-03-01T07:29:54;-2.50;99.90
76787;DHT22;65739;51.482;5.702;2023-03-01T07:32:19;-2.40;99.90
76787;DHT22;65739;51.482;5.702;2023-03-01T07:34:48;-2.30;99.90
76787;DHT22;65739;51.482;5.702;2023-03-01T07:37:14;-2.20;99.90
76787;DHT22;65739;51.482;5.702;2023-03-01T07:39:40;-2.10;99.90
76787;DHT22;65739;51.482;5.702;2023-03-01T07:42:05;-2.00;99.90
76787;DHT22;65739;51.482;5.702;2023-03-01T07:44:40;-1.90;99.90
76787;DHT22;65739;51.482;5.702;2023-03-01T07:47:05;-1.80;99.90
76787;DHT22;65739;51.482;5.702;2023-03-01T07:49:31;-1.70;99.90
76787;DHT22;65739;51.482;5.702;2023-03-01T07:51:57;-1.60;99.90
76787;DHT22;65739;51.482;5.702;2023-03-01T07:54:22;-1.50;99.90
76787;DHT22;65739;51.482;5.702;2023-03-01T07:56:48;-1.30;99.90
76787;DHT22;65739;51.482;5.702;2023-03-01T07:59:23;-1.10;99.90
76787;DHT22;65739;51.482;5.702;2023-03-01T08:01:54;-0.90;99.90
76787;DHT22;65739;51.482;5.702;2023-03-01T08:04:21;-0.60;99.90
76787;DHT22;65739;51.482;5.702;2023-03-01T08:06:46;-0.40;99.90
76787;DHT22;65739;51.482;5.702;2023-03-01T08:09:12;-0.10;99.90
76787;DHT22;65739;51.482;5.702;2023-03-01T08:11:40;0.10;99.90
76787;DHT22;65739;51.482;5.702;2023-03-01T08:14:06;0.30;99.90
76787;DHT22;65739;51.482;5.702;2023-03-01T08:16:48;0.50;99.90
76787;DHT22;65739;51.482;5.702;2023-03-01T08:19:25;0.70;99.90
76787;DHT22;65739;51.482;5.702;2023-03-01T08:21:53;0.90;99.90
76787;DHT22;65739;51.482;5.702;2023-03-01T08:24:18;1.10;99.90
76787;DHT22;65739;51.482;5.702;2023-03-01T08:26:59;1.30;99.90
76787;DHT22;65739;51.482;5.702;2023-03-01T08:29:26;1.40;99.90
76787;DHT22;65739;51.482;5.702;2023-03-01T08:31:57;1.40;99.90
76787;DHT22;65739;51.482;5.702;2023-03-01T08:34:22;1.50;99.90
76787;DHT22;65739;51.482;5.702;2023-03-01T08:36:51;1.70;99.90
76787;DHT22;65739;51.482;5.702;2023-03-01T08:39:20;1.90;99.90
76787;DHT22;65739;51.482;5.702;2023-03-01T08:41:49;1.90;99.90
76787;DHT22;65739;51.482;5.702;2023-03-01T08:44:14;2.10;99.90
76787;DHT22;65739;51.482;5.702;2023-03-01T08:46:49;2.00;99.90
76787;DHT22;65739;51.482;5.702;2023-03-01T08:49:25;2.20;99.90
76787;DHT22;65739;51.482;5.702;2023-03-01T08:51:51;2.20;99.90
76787;DHT22;65739;51.482;5.702;2023-03-01T08:54:20;2.30;99.90
76787;DHT22;65739;51.482;5.702;2023-03-01T08:56:47;2.50;99.90
76787;DHT22;65739;51.482;5.702;2023-03-01T09:02:17;2.70;99.90
76787;DHT22;65739;51.482;5.702;2023-03-01T09:05:18;2.80;99.90
76787;DHT22;65739;51.482;5.702;2023-03-01T09:10:45;3.00;99.90
76787;DHT22;65739;51.482;5.702;2023-03-01T09:16:23;3.10;99.90
76787;DHT22;65739;51.482;5.702;2023-03-01T09:24:59;3.70;99.90
76787;DHT22;65739;51.482;5.702;2023-03-01T09:27:34;3.70;99.90
76787;DHT22;65739;51.482;5.702;2023-03-01T09:32:45;3.90;99.90
76787;DHT22;65739;51.482;5.702;2023-03-01T09:38:12;4.20;99.90
76787;DHT22;65739;51.482;5.702;2023-03-01T09:40:56;4.30;99.90
76787;DHT22;65739;51.482;5.702;2023-03-01T09:58:52;4.60;99.90
76787;DHT22;65739;51.482;5.702;2023-03-01T10:09:40;4.90;99.90
76787;DHT22;65739;51.482;5.702;2023-03-01T10:15:36;5.10;99.90
76787;DHT22;65739;51.482;5.702;2023-03-01T10:18:32;5.00;99.90
76787;DHT22;65739;51.482;5.702;2023-03-01T10:21:21;5.10;99.90
76787;DHT22;65739;51.482;5.702;2023-03-01T10:24:08;5.10;99.90
76787;DHT22;65739;51.482;5.702;2023-03-01T10:27:46;5.20;99.90
76787;DHT22;65739;51.482;5.702;2023-03-01T10:33:07;5.80;99.90
76787;DHT22;65739;51.482;5.702;2023-03-01T10:36:00;5.70;99.90
76787;DHT22;65739;51.482;5.702;2023-03-01T10:38:30;5.90;99.90
76787;DHT22;65739;51.482;5.702;2023-03-01T10:40:59;6.00;99.90
76787;DHT22;65739;51.482;5.702;2023-03-01T10:43:48;6.10;99.90
76787;DHT22;65739;51.482;5.702;2023-03-01T10:46:35;6.10;99.90
76787;DHT22;65739;51.482;5.702;2023-03-01T10:49:15;6.50;99.90
76787;DHT22;65739;51.482;5.702;2023-03-01T10:51:50;6.60;99.90
76787;DHT22;65739;51.482;5.702;2023-03-01T10:54:18;6.70;99.90
76787;DHT22;65739;51.482;5.702;2023-03-01T10:56:50;6.80;99.90
76787;DHT22;65739;51.482;5.702;2023-03-01T10:59:26;6.90;99.90
76787;DHT22;65739;51.482;5.702;2023-03-01T11:04:33;7.00;99.90
76787;DHT22;65739;51.482;5.702;2023-03-01T11:06:59;7.30;99.90
76787;DHT22;65739;51.482;5.702;2023-03-01T11:09:33;7.00;99.90
76787;DHT22;65739;51.482;5.702;2023-03-01T11:12:11;7.10;99.90
76787;DHT22;65739;51.482;5.702;2023-03-01T11:14:39;7.30;99.90
76787;DHT22;65739;51.482;5.702;2023-03-01T11:17:30;7.60;99.90
76787;DHT22;65739;51.482;5.702;2023-03-01T11:22:32;8.10;99.90
76787;DHT22;65739;51.482;5.702;2023-03-01T11:24:59;8.10;99.90
76787;DHT22;65739;51.482;5.702;2023-03-01T11:27:26;7.90;99.90
76787;DHT22;65739;51.482;5.702;2023-03-01T11:32:18;8.00;99.90
76787;DHT22;65739;51.482;5.702;2023-03-01T11:34:53;8.20;99.90
76787;DHT22;65739;51.482;5.702;2023-03-01T11:37:40;8.60;99.90
76787;DHT22;65739;51.482;5.702;2023-03-01T11:42:43;8.50;99.90
76787;DHT22;65739;51.482;5.702;2023-03-01T11:45:10;8.70;99.90
76787;DHT22;65739;51.482;5.702;2023-03-01T11:47:58;8.70;99.90
76787;DHT22;65739;51.482;5.702;2023-03-01T11:53:23;8.90;99.90
76787;DHT22;65739;51.482;5.702;2023-03-01T12:09:31;9.20;99.90
76787;DHT22;65739;51.482;5.702;2023-03-01T12:24:55;9.40;99.90
76787;DHT22;65739;51.482;5.702;2023-03-01T12:27:39;9.40;99.90
76787;DHT22;65739;51.482;5.702;2023-03-01T12:46:32;10.10;99.90
76787;DHT22;65739;51.482;5.702;2023-03-01T12:49:19;9.90;99.90
76787;DHT22;65739;51.482;5.702;2023-03-01T12:51:55;9.80;99.90
76787;DHT22;65739;51.482;5.702;2023-03-01T12:54:31;9.80;99.90
76787;DHT22;65739;51.482;5.702;2023-03-01T12:57:00;9.70;99.90
76787;DHT22;65739;51.482;5.702;2023-03-01T12:59:30;9.90;99.90
76787;DHT22;65739;51.482;5.702;2023-03-01T13:07:18;9.80;99.90
76787;DHT22;65739;51.482;5.702;2023-03-01T13:09:51;9.30;99.90
76787;DHT22;65739;51.482;5.702;2023-03-01T13:15:13;9.40;99.90
76787;DHT22;65739;51.482;5.702;2023-03-01T13:17:50;9.20;99.90
76787;DHT22;65739;51.482;5.702;2023-03-01T13:20:17;9.30;99.90
76787;DHT22;65739;51.482;5.702;2023-03-01T13:22:43;9.60;99.90
76787;DHT22;65739;51.482;5.702;2023-03-01T13:27:38;9.50;99.90
76787;DHT22;65739;51.482;5.702;2023-03-01T13:30:12;9.20;99.90
76787;DHT22;65739;51.482;5.702;2023-03-01T13:32:49;9.40;99.90
76787;DHT22;65739;51.482;5.702;2023-03-01T13:37:41;9.50;99.90
76787;DHT22;65739;51.482;5.702;2023-03-01T13:42:50;9.90;99.90
76787;DHT22;65739;51.482;5.702;2023-03-01T13:45:23;9.80;99.90
76787;DHT22;65739;51.482;5.702;2023-03-01T13:47:55;9.70;99.90
76787;DHT22;65739;51.482;5.702;2023-03-01T13:50:24;9.70;99.90
76787;DHT22;65739;51.482;5.702;2023-03-01T13:52:52;9.90;99.90
76787;DHT22;65739;51.482;5.702;2023-03-01T13:55:23;9.70;99.90
76787;DHT22;65739;51.482;5.702;2023-03-01T13:57:57;9.30;99.90
76787;DHT22;65739;51.482;5.702;2023-03-01T14:00:36;9.30;99.90
76787;DHT22;65739;51.482;5.702;2023-03-01T14:05:27;9.70;99.90
76787;DHT22;65739;51.482;5.702;2023-03-01T14:07:54;9.40;99.90
76787;DHT22;65739;51.482;5.702;2023-03-01T14:10:19;9.20;99.90
76787;DHT22;65739;51.482;5.702;2023-03-01T14:13:33;9.10;99.90
76787;DHT22;65739;51.482;5.702;2023-03-01T14:15:42;9.10;99.90
76787;DHT22;65739;51.482;5.702;2023-03-01T14:18:10;9.00;99.90
76787;DHT22;65739;51.482;5.702;2023-03-01T14:20:41;9.30;99.90
76787;DHT22;65739;51.482;5.702;2023-03-01T14:23:12;9.10;99.90
76787;DHT22;65739;51.482;5.702;2023-03-01T14:25:38;9.20;99.90
76787;DHT22;65739;51.482;5.702;2023-03-01T14:30:42;9.20;99.90
76787;DHT22;65739;51.482;5.702;2023-03-01T14:33:21;9.10;99.90
76787;DHT22;65739;51.482;5.702;2023-03-01T14:36:09;9.00;99.90
76787;DHT22;65739;51.482;5.702;2023-03-01T14:38:40;8.80;99.90
76787;DHT22;65739;51.482;5.702;2023-03-01T14:41:10;8.70;99.90
76787;DHT22;65739;51.482;5.702;2023-03-01T14:43:37;8.80;99.90
76787;DHT22;65739;51.482;5.702;2023-03-01T14:46:04;8.80;99.90
76787;DHT22;65739;51.482;5.702;2023-03-01T14:48:29;8.70;99.90
76787;DHT22;65739;51.482;5.702;2023-03-01T14:50:56;8.80;99.90
76787;DHT22;65739;51.482;5.702;2023-03-01T14:53:23;8.60;99.90
76787;DHT22;65739;51.482;5.702;2023-03-01T14:55:53;8.80;99.90
76787;DHT22;65739;51.482;5.702;2023-03-01T14:58:20;8.80;99.90
76787;DHT22;65739;51.482;5.702;2023-03-01T15:00:53;8.80;99.90
76787;DHT22;65739;51.482;5.702;2023-03-01T15:05:48;8.80;99.90
76787;DHT22;65739;51.482;5.702;2023-03-01T15:08:16;8.80;99.90
76787;DHT22;65739;51.482;5.702;2023-03-01T15:10:54;8.80;99.90
76787;DHT22;65739;51.482;5.702;2023-03-01T15:13:24;8.70;99.90
76787;DHT22;65739;51.482;5.702;2023-03-01T15:15:50;8.50;99.90
76787;DHT22;65739;51.482;5.702;2023-03-01T15:18:18;8.60;99.90
76787;DHT22;65739;51.482;5.702;2023-03-01T15:20:45;8.60;99.90
76787;DHT22;65739;51.482;5.702;2023-03-01T15:25:48;8.70;99.90
76787;DHT22;65739;51.482;5.702;2023-03-01T15:28:22;8.80;99.90
76787;DHT22;65739;51.482;5.702;2023-03-01T15:31:02;8.60;99.90
76787;DHT22;65739;51.482;5.702;2023-03-01T15:33:29;8.50;99.90
76787;DHT22;65739;51.482;5.702;2023-03-01T15:36:29;8.40;99.90
76787;DHT22;65739;51.482;5.702;2023-03-01T15:38:51;8.30;99.90
76787;DHT22;65739;51.482;5.702;2023-03-01T15:41:29;8.30;99.90
76787;DHT22;65739;51.482;5.702;2023-03-01T15:43:59;8.30;99.90
76787;DHT22;65739;51.482;5.702;2023-03-01T15:46:29;8.50;99.90
76787;DHT22;65739;51.482;5.702;2023-03-01T15:48:57;8.50;99.90
76787;DHT22;65739;51.482;5.702;2023-03-01T15:51:30;8.50;99.90
76787;DHT22;65739;51.482;5.702;2023-03-01T15:53:58;8.30;99.90
76787;DHT22;65739;51.482;5.702;2023-03-01T15:56:24;8.40;99.90
76787;DHT22;65739;51.482;5.702;2023-03-01T15:58:50;8.40;99.90
76787;DHT22;65739;51.482;5.702;2023-03-01T16:01:16;8.50;99.90
76787;DHT22;65739;51.482;5.702;2023-03-01T16:03:42;8.20;99.90
76787;DHT22;65739;51.482;5.702;2023-03-01T16:06:11;8.20;99.90
76787;DHT22;65739;51.482;5.702;2023-03-01T16:08:37;8.10;99.90
76787;DHT22;65739;51.482;5.702;2023-03-01T16:11:03;8.10;99.90
76787;DHT22;65739;51.482;5.702;2023-03-01T16:13:30;8.00;99.90
76787;DHT22;65739;51.482;5.702;2023-03-01T16:15:56;7.80;99.90
76787;DHT22;65739;51.482;5.702;2023-03-01T16:18:22;7.60;99.90
76787;DHT22;65739;51.482;5.702;2023-03-01T16:20:47;7.60;99.90
76787;DHT22;65739;51.482;5.702;2023-03-01T16:23:14;7.20;99.90
76787;DHT22;65739;51.482;5.702;2023-03-01T16:25:40;7.10;99.90
76787;DHT22;65739;51.482;5.702;2023-03-01T16:28:06;6.90;99.90
76787;DHT22;65739;51.482;5.702;2023-03-01T16:30:35;6.80;99.90
76787;DHT22;65739;51.482;5.702;2023-03-01T16:33:01;6.70;99.90
76787;DHT22;65739;51.482;5.702;2023-03-01T16:35:27;6.60;99.90
76787;DHT22;65739;51.482;5.702;2023-03-01T16:37:54;6.50;99.90
76787;DHT22;65739;51.482;5.702;2023-03-01T16:40:21;6.50;99.90
76787;DHT22;65739;51.482;5.702;2023-03-01T16:42:47;6.40;99.90
76787;DHT22;65739;51.482;5.702;2023-03-01T16:45:13;6.30;99.90
76787;DHT22;65739;51.482;5.702;2023-03-01T16:47:38;6.20;99.90
76787;DHT22;65739;51.482;5.702;2023-03-01T16:50:04;6.00;99.90
76787;DHT22;65739;51.482;5.702;2023-03-01T16:52:30;5.90;99.90
76787;DHT22;65739;51.482;5.702;2023-03-01T16:54:55;5.90;99.90
76787;DHT22;65739;51.482;5.702;2023-03-01T16:57:21;5.80;99.90
76787;DHT22;65739;51.482;5.702;2023-03-01T16:59:47;5.60;99.90
76787;DHT22;65739;51.482;5.702;2023-03-01T17:02:12;5.60;99.90
76787;DHT22;65739;51.482;5.702;2023-03-01T17:04:40;5.50;99.90
76787;DHT22;65739;51.482;5.702;2023-03-01T17:07:05;5.40;99.90
76787;DHT22;65739;51.482;5.702;2023-03-01T17:09:40;5.30;99.90
76787;DHT22;65739;51.482;5.702;2023-03-01T17:12:06;5.20;99.90
76787;DHT22;65739;51.482;5.702;2023-03-01T17:14:34;5.10;99.90
76787;DHT22;65739;51.482;5.702;2023-03-01T17:17:03;5.00;99.90
76787;DHT22;65739;51.482;5.702;2023-03-01T17:19:40;4.90;99.90
76787;DHT22;65739;51.482;5.702;2023-03-01T17:22:10;4.80;99.90
76787;DHT22;65739;51.482;5.702;2023-03-01T17:24:37;4.70;99.90
76787;DHT22;65739;51.482;5.702;2023-03-01T17:27:03;4.60;99.90
76787;DHT22;65739;51.482;5.702;2023-03-01T17:29:29;4.50;99.90
76787;DHT22;65739;51.482;5.702;2023-03-01T17:31:55;4.40;99.90
76787;DHT22;65739;51.482;5.702;2023-03-01T17:34:22;4.20;99.90
76787;DHT22;65739;51.482;5.702;2023-03-01T17:36:47;4.10;99.90
76787;DHT22;65739;51.482;5.702;2023-03-01T17:40:44;4.00;99.90
76787;DHT22;65739;51.482;5.702;2023-03-01T17:43:15;3.80;99.90
76787;DHT22;65739;51.482;5.702;2023-03-01T17:45:41;3.70;99.90
76787;DHT22;65739;51.482;5.702;2023-03-01T17:48:12;3.60;99.90
76787;DHT22;65739;51.482;5.702;2023-03-01T17:50:48;3.50;99.90
76787;DHT22;65739;51.482;5.702;2023-03-01T17:53:40;3.40;99.90
76787;DHT22;65739;51.482;5.702;2023-03-01T18:00:21;3.10;99.90
76787;DHT22;65739;51.482;5.702;2023-03-01T18:03:25;3.10;99.90
76787;DHT22;65739;51.482;5.702;2023-03-01T18:06:51;3.10;99.90
76787;DHT22;65739;51.482;5.702;2023-03-01T18:09:29;2.90;99.90
76787;DHT22;65739;51.482;5.702;2023-03-01T18:12:43;2.80;99.90
76787;DHT22;65739;51.482;5.702;2023-03-01T18:23:02;2.60;99.90